sensor_id;sensor_type;location;lat;lon;timestamp;pressure;altitude;pressure_sealevel;temperature;humidity
58739;BME280;44512;53.046;18.604;2023-08-12T00:02:11;102310.02;;;18.12;51.08
58739;BME280;44512;53.046;18.604;2023-08-12T00:12:40;102309.60;;;18.02;51.31
58739;BME280;44512;53.046;18.604;2023-08-12T00:23:08;102305.39;;;17.86;51.74
58739;BME280;44512;53.046;18.604;2023-08-12T00:33:36;102299.45;;;17.69;52.26
58739;BME280;44512;53.046;18.604;2023-08-12T00:44:04;102301.77;;;17.59;52.85
58739;BME280;44512;53.046;18.604;2023-08-12T00:54:33;102309.14;;;17.52;53.16
58739;BME280;44512;53.046;18.604;2023-08-12T01:05:01;102308.69;;;17.42;53.55
58739;BME280;44512;53.046;18.604;2023-08-12T01:15:30;102313.30;;;17.35;53.89
58739;BME280;44512;53.046;18.604;2023-08-12T01:25:58;102314.95;;;17.23;54.09
58739;BME280;44512;53.046;18.604;2023-08-12T01:36:29;102309.02;;;17.12;54.57
58739;BME280;44512;53.046;18.604;2023-08-12T01:46:55;102311.53;;;17.07;54.99
58739;BME280;44512;53.046;18.604;2023-08-12T01:57:23;102296.58;;;17.03;55.35
58739;BME280;44512;53.046;18.604;2023-08-12T02:07:51;102290.41;;;16.88;55.67
58739;BME280;44512;53.046;18.604;2023-08-12T02:18:20;102293.77;;;16.83;56.16
58739;BME280;44512;53.046;18.604;2023-08-12T02:28:48;102287.37;;;16.70;56.44
58739;BME280;44512;53.046;18.604;2023-08-12T02:39:16;102295.34;;;16.64;57.05
58739;BME280;44512;53.046;18.604;2023-08-12T02:49:45;102299.28;;;16.55;57.43
58739;BME280;44512;53.046;18.604;2023-08-12T03:00:14;102300.27;;;16.48;57.62
58739;BME280;44512;53.046;18.604;2023-08-12T03:10:42;102298.77;;;16.38;57.81
58739;BME280;44512;53.046;18.604;2023-08-12T03:21:10;102300.14;;;16.28;58.13
58739;BME280;44512;53.046;18.604;2023-08-12T03:31:38;102311.49;;;16.25;58.19
58739;BME280;44512;53.046;18.604;2023-08-12T03:42:07;102308.90;;;16.17;58.50
58739;BME280;44512;53.046;18.604;2023-08-12T03:52:35;102308.90;;;16.17;58.74
58739;BME280;44512;53.046;18.604;2023-08-12T04:03:04;102313.14;;;16.19;59.02
58739;BME280;44512;53.046;18.604;2023-08-12T04:13:32;102300.91;;;16.15;59.20
58739;BME280;44512;53.046;18.604;2023-08-12T04:24:00;102296.74;;;16.19;59.54
58739;BME280;44512;53.046;18.604;2023-08-12T04:34:28;102300.14;;;16.28;59.77
58739;BME280;44512;53.046;18.604;2023-08-12T04:44:57;102295.97;;;16.32;60.21
58739;BME280;44512;53.046;18.604;2023-08-12T04:55:25;102294.14;;;16.39;60.42
58739;BME280;44512;53.046;18.604;2023-08-12T05:05:54;102294.63;;;16.49;60.51
58739;BME280;44512;53.046;18.604;2023-08-12T05:16:22;102291.95;;;16.62;60.39
58739;BME280;44512;53.046;18.604;2023-08-12T05:26:50;102286.59;;;16.76;60.34
58739;BME280;44512;53.046;18.604;2023-08-12T05:37:19;102282.84;;;16.90;60.24
58739;BME280;44512;53.046;18.604;2023-08-12T05:47:47;102287.54;;;17.03;59.75
58739;BME280;44512;53.046;18.604;2023-08-12T05:58:16;102289.27;;;17.17;58.33
58739;BME280;44512;53.046;18.604;2023-08-12T06:08:44;102283.41;;;17.33;56.91
58739;BME280;44512;53.046;18.604;2023-08-12T06:19:12;102275.02;;;17.48;56.30
58739;BME280;44512;53.046;18.604;2023-08-12T06:29:40;102276.27;;;17.65;55.57
58739;BME280;44512;53.046;18.604;2023-08-12T06:40:09;102271.91;;;17.84;55.20
58739;BME280;44512;53.046;18.604;2023-08-12T06:50:37;102274.63;;;18.04;54.96
58739;BME280;44512;53.046;18.604;2023-08-12T07:01:06;102263.62;;;18.24;54.84
58739;BME280;44512;53.046;18.604;2023-08-12T07:11:34;102264.02;;;18.41;54.96
58739;BME280;44512;53.046;18.604;2023-08-12T07:22:03;102262.24;;;18.66;53.81
58739;BME280;44512;53.046;18.604;2023-08-12T07:32:31;102257.09;;;18.90;53.11
58739;BME280;44512;53.046;18.604;2023-08-12T07:42:59;102258.26;;;19.07;52.49
58739;BME280;44512;53.046;18.604;2023-08-12T07:53:27;102256.23;;;19.28;51.63
58739;BME280;44512;53.046;18.604;2023-08-12T08:03:56;102237.95;;;19.46;51.07
58739;BME280;44512;53.046;18.604;2023-08-12T08:14:24;102219.84;;;19.70;50.22
58739;BME280;44512;53.046;18.604;2023-08-12T08:24:52;102210.11;;;19.93;49.48
58739;BME280;44512;53.046;18.604;2023-08-12T08:35:21;102206.76;;;20.09;48.62
58739;BME280;44512;53.046;18.604;2023-08-12T08:45:52;102192.20;;;20.27;48.24
58739;BME280;44512;53.046;18.604;2023-08-12T08:56:18;102192.40;;;20.44;47.90
58739;BME280;44512;53.046;18.604;2023-08-12T09:06:46;102189.64;;;20.62;47.54
58739;BME280;44512;53.046;18.604;2023-08-12T09:17:14;102189.16;;;20.84;47.61
58739;BME280;44512;53.046;18.604;2023-08-12T09:27:42;102181.91;;;21.01;47.43
58739;BME280;44512;53.046;18.604;2023-08-12T09:38:12;102159.09;;;21.24;46.20
58739;BME280;44512;53.046;18.604;2023-08-12T09:48:39;102158.20;;;21.42;45.51
58739;BME280;44512;53.046;18.604;2023-08-12T09:59:08;102144.69;;;21.52;45.54
58739;BME280;44512;53.046;18.604;2023-08-12T10:09:36;102137.73;;;21.61;45.48
58739;BME280;44512;53.046;18.604;2023-08-12T10:20:05;102123.81;;;21.79;44.92
58739;BME280;44512;53.046;18.604;2023-08-12T10:30:34;102122.37;;;21.89;45.63
58739;BME280;44512;53.046;18.604;2023-08-12T10:56:30;102103.55;;;21.85;48.44
58739;BME280;44512;53.046;18.604;2023-08-12T11:06:59;102099.13;;;21.84;47.60
58739;BME280;44512;53.046;18.604;2023-08-12T11:17:33;102081.50;;;21.97;46.98
58739;BME280;44512;53.046;18.604;2023-08-12T11:27:56;102077.50;;;22.05;46.58
58739;BME280;44512;53.046;18.604;2023-08-12T11:38:24;102066.24;;;22.18;46.64
58739;BME280;44512;53.046;18.604;2023-08-12T11:48:52;102053.61;;;22.22;46.09
58739;BME280;44512;53.046;18.604;2023-08-12T11:59:24;102027.66;;;22.35;44.74
58739;BME280;44512;53.046;18.604;2023-08-12T12:09:52;102024.66;;;22.53;44.19
58739;BME280;44512;53.046;18.604;2023-08-12T12:20:17;102013.83;;;22.80;43.41
58739;BME280;44512;53.046;18.604;2023-08-12T12:30:45;102013.77;;;22.92;43.84
58739;BME280;44512;53.046;18.604;2023-08-12T12:41:14;101998.92;;;23.15;43.24
58739;BME280;44512;53.046;18.604;2023-08-12T12:51:42;101998.23;;;23.42;42.18
58739;BME280;44512;53.046;18.604;2023-08-12T13:02:10;101982.57;;;23.69;41.54
58739;BME280;44512;53.046;18.604;2023-08-12T13:12:39;101988.41;;;23.95;40.93
58739;BME280;44512;53.046;18.604;2023-08-12T13:23:07;101975.19;;;24.02;41.29
58739;BME280;44512;53.046;18.604;2023-08-12T13:33:35;101974.68;;;24.05;41.08
58739;BME280;44512;53.046;18.604;2023-08-12T13:44:04;101967.48;;;24.04;40.53
58739;BME280;44512;53.046;18.604;2023-08-12T13:54:32;101947.64;;;24.12;40.50
58739;BME280;44512;53.046;18.604;2023-08-12T14:05:00;101923.38;;;24.19;40.88
58739;BME280;44512;53.046;18.604;2023-08-12T14:15:29;101917.95;;;24.34;41.96
58739;BME280;44512;53.046;18.604;2023-08-12T14:25:57;101913.80;;;24.64;40.76
58739;BME280;44512;53.046;18.604;2023-08-12T14:36:25;101899.59;;;27.29;36.17
58739;BME280;44512;53.046;18.604;2023-08-12T14:46:54;101893.95;;;26.54;38.07
58739;BME280;44512;53.046;18.604;2023-08-12T14:57:22;101874.39;;;27.05;37.16
58739;BME280;44512;53.046;18.604;2023-08-12T15:07:50;101857.97;;;27.73;35.63
58739;BME280;44512;53.046;18.604;2023-08-12T15:18:19;101858.03;;;27.58;35.17
58739;BME280;44512;53.046;18.604;2023-08-12T15:28:48;101842.17;;;27.58;34.64
58739;BME280;44512;53.046;18.604;2023-08-12T15:39:16;101834.84;;;27.28;34.92
58739;BME280;44512;53.046;18.604;2023-08-12T15:49:44;101836.13;;;26.76;35.44
58739;BME280;44512;53.046;18.604;2023-08-12T16:00:12;101822.31;;;26.51;35.56
58739;BME280;44512;53.046;18.604;2023-08-12T16:10:41;101819.00;;;26.28;35.79
58739;BME280;44512;53.046;18.604;2023-08-12T16:21:09;101817.35;;;26.12;35.94
58739;BME280;44512;53.046;18.604;2023-08-12T16:31:37;101795.72;;;25.98;36.20
58739;BME280;44512;53.046;18.604;2023-08-12T16:42:06;101803.78;;;25.90;36.42
58739;BME280;44512;53.046;18.604;2023-08-12T16:52:34;101800.43;;;25.83;36.76
58739;BME280;44512;53.046;18.604;2023-08-12T17:03:03;101788.50;;;25.77;37.16
58739;BME280;44512;53.046;18.604;2023-08-12T17:13:31;101782.41;;;25.75;37.28
58739;BME280;44512;53.046;18.604;2023-08-12T17:23:59;101782.10;;;25.71;37.29
58739;BME280;44512;53.046;18.604;2023-08-12T17:34:27;101794.59;;;25.69;37.40
58739;BME280;44512;53.046;18.604;2023-08-12T17:44:56;101792.64;;;25.64;37.52
58739;BME280;44512;53.046;18.604;2023-08-12T17:55:24;101792.90;;;25.63;37.77
58739;BME280;44512;53.046;18.604;2023-08-12T18:05:52;101795.13;;;25.61;38.00
58739;BME280;44512;53.046;18.604;2023-08-12T18:16:21;101776.53;;;25.56;39.01
58739;BME280;44512;53.046;18.604;2023-08-12T18:26:49;101782.37;;;25.55;39.21
58739;BME280;44512;53.046;18.604;2023-08-12T18:37:17;101788.45;;;25.52;39.59
58739;BME280;44512;53.046;18.604;2023-08-12T18:47:46;101782.61;;;25.48;39.96
58739;BME280;44512;53.046;18.604;2023-08-12T18:58:14;101793.43;;;25.44;39.74
58739;BME280;44512;53.046;18.604;2023-08-12T19:08:42;101787.30;;;25.37;39.94
58739;BME280;44512;53.046;18.604;2023-08-12T19:19:11;101785.92;;;25.30;38.96
58739;BME280;44512;53.046;18.604;2023-08-12T19:29:39;101781.48;;;25.24;38.22
58739;BME280;44512;53.046;18.604;2023-08-12T19:40:08;101776.17;;;25.17;38.03
58739;BME280;44512;53.046;18.604;2023-08-12T19:50:36;101772.84;;;25.10;38.25
58739;BME280;44512;53.046;18.604;2023-08-12T20:01:04;101775.56;;;25.05;38.49
58739;BME280;44512;53.046;18.604;2023-08-12T20:11:32;101774.44;;;25.01;38.76
58739;BME280;44512;53.046;18.604;2023-08-12T20:22:01;101774.99;;;24.98;39.08
58739;BME280;44512;53.046;18.604;2023-08-12T20:32:30;101763.91;;;24.92;39.49
58739;BME280;44512;53.046;18.604;2023-08-12T20:42:57;101748.91;;;24.83;40.01
58739;BME280;44512;53.046;18.604;2023-08-12T20:53:26;101746.38;;;24.72;40.46
58739;BME280;44512;53.046;18.604;2023-08-12T21:03:54;101746.08;;;24.68;40.87
58739;BME280;44512;53.046;18.604;2023-08-12T21:14:23;101741.05;;;24.60;41.33
58739;BME280;44512;53.046;18.604;2023-08-12T21:24:51;101734.41;;;24.56;41.88
58739;BME280;44512;53.046;18.604;2023-08-12T21:35:19;101728.27;;;24.49;42.50
58739;BME280;44512;53.046;18.604;2023-08-12T21:45:47;101723.29;;;24.46;42.89
58739;BME280;44512;53.046;18.604;2023-08-12T21:56:16;101720.74;;;24.39;43.09
58739;BME280;44512;53.046;18.604;2023-08-12T22:06:44;101716.31;;;24.38;43.23
58739;BME280;44512;53.046;18.604;2023-08-12T22:17:12;101709.89;;;24.32;43.38
58739;BME280;44512;53.046;18.604;2023-08-12T22:27:41;101702.95;;;24.25;43.50
58739;BME280;44512;53.046;18.604;2023-08-12T22:38:09;101691.59;;;24.21;43.45
58739;BME280;44512;53.046;18.604;2023-08-12T22:48:37;101696.57;;;24.19;43.36
58739;BME280;44512;53.046;18.604;2023-08-12T22:59:06;101692.62;;;24.10;43.53
58739;BME280;44512;53.046;18.604;2023-08-12T23:09:34;101679.88;;;24.04;43.72
58739;BME280;44512;53.046;18.604;2023-08-12T23:20:03;101685.41;;;24.04;43.83
58739;BME280;44512;53.046;18.604;2023-08-12T23:30:31;101709.43;;;24.03;43.88
58739;BME280;44512;53.046;18.604;2023-08-12T23:40:59;101669.86;;;23.98;45.15
58739;BME280;44512;53.046;18.604;2023-08-12T23:51:27;101658.24;;;23.96;46.86
